Time;durP1;ratioP1;P1;durP2;ratioP2;P2;SDS_P1;SDS_P2;PMS_P1;PMS_P2;Temp;Humidity;BMP_temperature;BMP_pressure;BME280_temperature;BME280_humidity;BME280_pressure;Samples;Min_cycle;Max_cycle;Signal;HPM_P1;HPM_P2
2022/11/27 00:00:58;;;;;;;58.50;28.65;;;;;;;;;;5036485;28;20117;-83
2022/11/27 00:03:24;;;;;;;58.08;29.13;;;0.60;99.90;;;;;;5042612;28;20037;-83
2022/11/27 00:05:57;;;;;;;55.45;27.90;;;0.50;99.90;;;;;;5038760;28;20030;-84
2022/11/27 00:08:28;;;;;;;52.20;28.60;;;;;;;;;;5040456;28;20009;-81
2022/11/27 00:10:54;;;;;;;62.75;29.80;;;;;;;;;;5044365;28;20049;-84
2022/11/27 00:13:20;;;;;;;59.53;29.38;;;;;;;;;;5030092;28;20459;-81
2022/11/27 00:15:46;;;;;;;55.60;27.83;;;;;;;;;;5035411;28;20113;-84
2022/11/27 00:18:12;;;;;;;64.85;29.88;;;;;;;;;;5046426;28;20133;-79
2022/11/27 00:20:38;;;;;;;73.32;31.33;;;;;;;;;;5041045;28;20022;-80
2022/11/27 00:23:04;;;;;;;64.43;30.45;;;;;;;;;;5050997;28;20041;-83
2022/11/27 00:25:31;;;;;;;68.78;32.45;;;;;;;;;;5043257;28;20064;-83
2022/11/27 00:27:57;;;;;;;53.65;27.30;;;;;;;;;;5049801;28;20013;-82
2022/11/27 00:30:23;;;;;;;60.50;28.83;;;;;;;;;;5048532;28;20081;-76
2022/11/27 00:32:49;;;;;;;52.22;25.70;;;;;;;;;;5052755;28;20034;-78
2022/11/27 00:35:15;;;;;;;62.22;28.92;;;;;;;;;;5048458;28;20014;-78
2022/11/27 00:37:41;;;;;;;59.45;29.75;;;;;;;;;;5051042;28;20037;-82
2022/11/27 00:40:07;;;;;;;60.17;28.63;;;;;;;;;;5052741;28;20009;-80
2022/11/27 00:42:33;;;;;;;58.08;28.52;;;;;;;;;;5043628;28;20057;-83
2022/11/27 00:44:59;;;;;;;63.67;29.83;;;;;;;;;;5039595;28;20029;-82
2022/11/27 00:47:25;;;;;;;61.17;27.75;;;;;;;;;;5037946;28;20025;-84
2022/11/27 00:49:51;;;;;;;52.60;27.00;;;;;;;;;;5032733;28;20101;-82
2022/11/27 00:52:18;;;;;;;48.22;25.65;;;;;;;;;;5028764;28;20033;-78
2022/11/27 00:54:44;;;;;;;52.90;27.40;;;;;;;;;;5021225;28;20045;-83
2022/11/27 00:57:09;;;;;;;54.10;27.77;;;0.10;99.90;;;;;;5026626;28;20028;-85
2022/11/27 01:16:42;;;;;;;52.08;27.17;;;-0.20;99.90;;;;;;5011724;28;20037;-79
2022/11/27 01:19:10;;;;;;;59.25;26.73;;;-0.20;99.90;;;;;;5025982;28;20037;-84
2022/11/27 01:21:35;;;;;;;49.22;24.50;;;-0.20;99.90;;;;;;5022928;28;20466;-83
2022/11/27 01:24:03;;;;;;;53.85;27.65;;;-0.30;99.90;;;;;;5026277;28;20109;-83
2022/11/27 01:26:29;;;;;;;55.75;26.55;;;-0.30;99.90;;;;;;5000595;28;20046;-85
2022/11/27 01:28:56;;;;;;;53.33;26.95;;;-0.30;99.90;;;;;;4994302;28;20483;-86
2022/11/27 01:31:27;;;;;;;59.80;27.88;;;-0.30;99.90;;;;;;5006930;28;20088;-86
2022/11/27 01:33:58;;;;;;;56.35;26.70;;;-0.30;99.90;;;;;;5006949;28;20061;-86
2022/11/27 01:36:25;;;;;;;56.05;27.98;;;-0.30;99.90;;;;;;5004054;28;20030;-86
2022/11/27 01:38:50;;;;;;;54.92;27.00;;;-0.40;99.90;;;;;;4988304;28;20072;-83
2022/11/27 01:41:24;;;;;;;58.40;30.13;;;-0.40;99.90;;;;;;5004837;28;20062;-77
2022/11/27 01:44:18;;;;;;;51.78;26.60;;;-0.40;99.90;;;;;;5003619;28;20364;-85
2022/11/27 01:46:49;;;;;;;51.92;24.70;;;-0.40;99.90;;;;;;4977450;28;20096;-86
2022/11/27 01:49:39;;;;;;;56.58;25.98;;;-0.40;99.90;;;;;;5007680;28;20022;-77
2022/11/27 01:52:30;;;;;;;41.97;23.60;;;-0.50;99.90;;;;;;4996195;28;20066;-86
2022/11/27 01:55:04;;;;;;;50.20;26.02;;;-0.50;99.90;;;;;;5008183;28;20021;-86
2022/11/27 01:57:35;;;;;;;57.33;26.02;;;-0.50;99.90;;;;;;5007968;28;20145;-85
2022/11/27 02:00:05;;;;;;;50.88;24.20;;;-0.50;99.90;;;;;;4999886;28;20439;-83
2022/11/27 02:02:30;;;;;;;51.92;26.13;;;-0.40;99.90;;;;;;5004868;28;20139;-84
2022/11/27 02:04:56;;;;;;;44.47;23.48;;;-0.50;99.90;;;;;;4990210;28;20034;-85
2022/11/27 02:07:23;;;;;;;44.60;23.02;;;-0.50;99.90;;;;;;5007989;28;20014;-84
2022/11/27 02:09:49;;;;;;;53.15;24.15;;;-0.50;99.90;;;;;;4984477;28;20428;-86
2022/11/27 02:12:32;;;;;;;46.67;23.52;;;-0.60;99.90;;;;;;5005057;28;20084;-78
2022/11/27 02:15:00;;;;;;;61.00;25.98;;;-0.60;99.90;;;;;;5007444;28;20024;-86
2022/11/27 02:17:48;;;;;;;52.70;24.27;;;-0.60;99.90;;;;;;5005261;28;20023;-84
2022/11/27 02:20:56;;;;;;;47.97;24.52;;;-0.60;99.90;;;;;;5003655;28;20100;-83
2022/11/27 02:23:40;;;;;;;58.65;24.55;;;-0.60;99.90;;;;;;5003786;28;20034;-86
2022/11/27 02:26:32;;;;;;;49.53;23.90;;;-0.50;99.90;;;;;;5008136;28;20181;-85
2022/11/27 02:29:06;;;;;;;48.63;22.80;;;-0.50;99.90;;;;;;5013215;28;20022;-85
2022/11/27 02:32:14;;;;;;;46.95;22.50;;;-0.50;99.90;;;;;;5015022;28;20037;-85
2022/11/27 02:34:59;;;;;;;40.60;21.50;;;-0.50;99.90;;;;;;5010251;28;20033;-85
2022/11/27 02:37:44;;;;;;;57.50;24.15;;;-0.60;99.90;;;;;;5007535;28;20096;-87
2022/11/27 02:40:26;;;;;;;59.35;26.08;;;-0.60;99.90;;;;;;5009430;28;20022;-87
2022/11/27 02:43:00;;;;;;;56.63;24.65;;;-0.60;99.90;;;;;;5011827;28;20044;-86
2022/11/27 02:45:34;;;;;;;51.72;23.40;;;-0.50;99.90;;;;;;5005220;28;20026;-86
2022/11/27 02:48:00;;;;;;;52.45;24.65;;;-0.50;99.90;;;;;;5012053;28;20041;-87
2022/11/27 02:50:28;;;;;;;60.80;25.83;;;-0.50;99.90;;;;;;5024901;28;20029;-85
2022/11/27 02:52:58;;;;;;;53.53;24.00;;;-0.50;99.90;;;;;;5024992;28;20022;-80
2022/11/27 02:55:26;;;;;;;50.47;24.08;;;-0.50;99.90;;;;;;5010322;28;20424;-85
2022/11/27 02:57:55;;;;;;;51.50;24.02;;;-0.50;99.90;;;;;;5011399;28;20467;-86
2022/11/27 03:00:21;;;;;;;53.03;22.98;;;-0.50;99.90;;;;;;5006480;28;20025;-84
2022/11/27 03:02:59;;;;;;;48.83;23.23;;;-0.50;99.90;;;;;;5011058;28;20022;-86
2022/11/27 03:05:29;;;;;;;47.15;21.27;;;-0.60;99.90;;;;;;5010309;28;20451;-85
2022/11/27 03:08:08;;;;;;;48.50;22.83;;;-0.60;99.90;;;;;;5011662;28;20072;-85
2022/11/27 03:10:44;;;;;;;47.65;21.83;;;-0.70;99.90;;;;;;5006710;28;20040;-81
2022/11/27 03:13:10;;;;;;;50.10;23.40;;;-0.70;99.90;;;;;;5009220;28;20042;-85
2022/11/27 03:16:02;;;;;;;51.22;23.00;;;-0.70;99.90;;;;;;4993181;28;20021;-85
2022/11/27 03:18:39;;;;;;;46.60;21.75;;;-0.70;99.90;;;;;;4992581;28;20159;-86
2022/11/27 03:21:15;;;;;;;46.10;20.88;;;-0.80;99.90;;;;;;5010827;28;20129;-84
2022/11/27 03:23:41;;;;;;;43.65;21.50;;;-0.80;99.90;;;;;;5010318;28;20037;-85
2022/11/27 03:26:06;;;;;;;39.83;19.38;;;-0.80;99.90;;;;;;5012459;28;20053;-83
2022/11/27 03:28:33;;;;;;;48.55;20.33;;;-0.90;99.90;;;;;;5021072;28;20022;-83
2022/11/27 03:30:58;;;;;;;46.30;20.85;;;-0.90;99.90;;;;;;5024389;28;20029;-85
2022/11/27 03:33:24;;;;;;;44.97;20.80;;;-1.00;99.90;;;;;;5022260;28;20030;-82
2022/11/27 03:35:51;;;;;;;44.30;20.23;;;;;;;;;;5024691;28;20056;-84
2022/11/27 03:38:17;;;;;;;44.42;20.55;;;;;;;;;;5021989;28;20117;-77
2022/11/27 03:40:58;;;;;;;53.15;21.95;;;;;;;;;;5021983;28;20072;-83
2022/11/27 03:43:27;;;;;;;54.90;23.42;;;;;;;;;;5021893;28;20136;-81
2022/11/27 03:46:00;;;;;;;52.97;21.98;;;;;;;;;;5023881;28;20022;-85
2022/11/27 03:48:41;;;;;;;50.83;21.67;;;;;;;;;;5022023;28;20021;-84
2022/11/27 03:51:10;;;;;;;49.85;21.40;;;;;;;;;;5012655;28;20155;-84
2022/11/27 03:53:42;;;;;;;47.28;21.55;;;;;;;;;;5029978;28;20025;-82
2022/11/27 03:56:27;;;;;;;42.38;21.52;;;;;;;;;;5008242;28;20017;-84
2022/11/27 03:58:55;;;;;;;48.90;20.20;;;;;;;;;;5028176;28;20021;-80
2022/11/27 04:01:24;;;;;;;52.38;22.17;;;;;;;;;;5030197;28;20053;-83
2022/11/27 04:03:50;;;;;;;44.83;20.60;;;;;;;;;;5030234;28;20108;-84
2022/11/27 04:06:16;;;;;;;45.85;20.92;;;-0.80;99.90;;;;;;5023992;28;20185;-78
2022/11/27 04:08:43;;;;;;;57.13;22.23;;;;;;;;;;5026672;28;20029;-82
2022/11/27 04:11:09;;;;;;;43.85;21.45;;;;;;;;;;5028032;28;20068;-83
2022/11/27 04:13:36;;;;;;;58.30;23.83;;;;;;;;;;5023878;28;20053;-84
2022/11/27 04:16:02;;;;;;;55.58;23.60;;;;;;;;;;5024909;28;20080;-85
2022/11/27 04:18:27;;;;;;;50.08;21.92;;;;;;;;;;5029787;28;20018;-83
2022/11/27 04:20:53;;;;;;;56.00;23.75;;;-0.70;99.90;;;;;;5043716;28;20009;-82
2022/11/27 04:23:19;;;;;;;53.63;23.10;;;-0.70;99.90;;;;;;5053522;28;20009;-78
2022/11/27 04:25:44;;;;;;;56.10;23.52;;;-0.70;99.90;;;;;;5053238;28;20064;-79
2022/11/27 04:28:10;;;;;;;49.70;22.08;;;-0.70;99.90;;;;;;5054956;28;20014;-83
2022/11/27 04:30:36;;;;;;;57.50;24.13;;;-0.80;99.90;;;;;;5052862;28;20145;-81
2022/11/27 04:33:02;;;;;;;66.72;24.77;;;-0.80;99.90;;;;;;5042160;28;20044;-80
2022/11/27 04:35:27;;;;;;;52.60;23.05;;;-0.80;99.90;;;;;;5012443;28;20030;-84
2022/11/27 04:37:55;;;;;;;53.28;23.33;;;-0.80;99.90;;;;;;5029967;28;20022;-74
2022/11/27 04:40:20;;;;;;;55.22;23.73;;;-0.80;99.90;;;;;;5027958;28;20113;-78
2022/11/27 04:42:46;;;;;;;59.75;24.75;;;-0.80;99.90;;;;;;5028706;28;20096;-82
2022/11/27 04:45:13;;;;;;;58.03;24.02;;;-0.90;99.90;;;;;;5008218;28;20403;-82
2022/11/27 04:47:38;;;;;;;50.60;24.10;;;-0.90;99.90;;;;;;5027757;28;20044;-82
2022/11/27 04:50:05;;;;;;;59.17;26.25;;;-1.00;99.90;;;;;;5027455;28;20025;-83
2022/11/27 04:52:31;;;;;;;54.15;26.35;;;-1.00;99.90;;;;;;5025817;28;20021;-84
2022/11/27 04:54:56;;;;;;;48.53;24.90;;;-1.00;99.90;;;;;;5029781;28;20080;-82
2022/11/27 04:57:22;;;;;;;51.95;24.58;;;-1.00;99.90;;;;;;5024321;28;20116;-83
2022/11/27 04:59:48;;;;;;;57.83;25.52;;;-1.10;99.90;;;;;;5028588;28;20026;-83
2022/11/27 05:02:13;;;;;;;56.45;24.60;;;-1.10;99.90;;;;;;5025456;28;20121;-82
2022/11/27 05:05:06;;;;;;;54.70;23.98;;;;;;;;;;5025895;28;20093;-84
2022/11/27 05:07:34;;;;;;;58.10;22.50;;;-1.10;99.90;;;;;;5027330;28;20104;-84
2022/11/27 05:10:00;;;;;;;42.42;21.60;;;-1.20;99.90;;;;;;5028099;28;20381;-84
2022/11/27 05:12:28;;;;;;;48.08;21.63;;;;;;;;;;5026366;28;20117;-81
2022/11/27 05:14:54;;;;;;;49.33;21.70;;;-1.30;99.90;;;;;;5025143;28;20436;-82
2022/11/27 05:17:19;;;;;;;50.88;22.85;;;-1.30;99.90;;;;;;5032945;28;20053;-82
2022/11/27 05:19:45;;;;;;;40.75;21.10;;;;;;;;;;5026125;28;20445;-81
2022/11/27 05:22:11;;;;;;;44.47;21.52;;;;;;;;;;5026081;28;20026;-83
2022/11/27 05:24:37;;;;;;;50.45;22.92;;;;;;;;;;5026304;28;20072;-83
2022/11/27 05:27:04;;;;;;;43.42;22.08;;;;;;;;;;5035074;28;20130;-82
2022/11/27 05:29:30;;;;;;;41.50;20.60;;;;;;;;;;5025251;28;20022;-83
2022/11/27 05:31:56;;;;;;;45.58;20.90;;;;;;;;;;5007944;28;20037;-79
2022/11/27 05:34:22;;;;;;;44.15;21.27;;;;;;;;;;5013350;28;20018;-83
2022/11/27 05:36:48;;;;;;;43.47;21.08;;;;;;;;;;5014070;28;20025;-83
2022/11/27 05:39:14;;;;;;;58.25;22.50;;;;;;;;;;5014491;28;20430;-80
2022/11/27 05:41:41;;;;;;;54.08;20.73;;;;;;;;;;5012143;28;20038;-82
2022/11/27 05:44:09;;;;;;;40.30;19.98;;;;;;;;;;5013687;28;20080;-83
2022/11/27 05:46:35;;;;;;;47.30;20.27;;;;;;;;;;5013083;28;20018;-83
2022/11/27 05:49:01;;;;;;;45.72;19.40;;;;;;;;;;5006415;28;20029;-83
2022/11/27 05:51:27;;;;;;;41.35;19.60;;;-1.70;99.90;;;;;;5010155;28;20053;-82
2022/11/27 05:53:53;;;;;;;51.95;19.52;;;-1.70;99.90;;;;;;5005521;28;20033;-84
2022/11/27 05:56:18;;;;;;;45.35;18.73;;;-1.80;99.90;;;;;;5013081;28;20057;-75
2022/11/27 05:58:46;;;;;;;41.20;18.45;;;-1.80;99.90;;;;;;5031712;28;20044;-82
2022/11/27 06:01:13;;;;;;;42.20;19.10;;;-1.80;99.90;;;;;;5006966;28;20437;-82
2022/11/27 06:03:39;;;;;;;51.85;20.90;;;-1.80;99.90;;;;;;5014124;28;20032;-79
2022/11/27 06:06:10;;;;;;;44.97;18.80;;;-1.80;99.90;;;;;;5006583;28;20030;-83
2022/11/27 06:08:36;;;;;;;43.22;18.95;;;-1.70;99.90;;;;;;5013553;28;20054;-82
2022/11/27 06:11:11;;;;;;;50.53;19.77;;;-1.80;99.90;;;;;;5012623;28;20033;-82
2022/11/27 06:13:36;;;;;;;40.90;20.08;;;-1.80;99.90;;;;;;5030169;28;20049;-82
2022/11/27 06:16:12;;;;;;;44.20;19.95;;;-1.90;99.90;;;;;;5034946;28;20026;-82
2022/11/27 06:18:38;;;;;;;34.97;17.45;;;-1.90;99.90;;;;;;5035461;28;20127;-82
2022/11/27 06:21:13;;;;;;;47.83;20.48;;;-1.90;99.90;;;;;;5031613;28;20053;-81
2022/11/27 06:23:39;;;;;;;64.00;23.48;;;-1.90;99.90;;;;;;5049611;28;20026;-80
2022/11/27 06:29:46;;;;;;;53.90;22.58;;;-1.80;99.90;;;;;;5014664;28;20052;-82
2022/11/27 06:32:12;;;;;;;50.83;21.83;;;-1.80;99.90;;;;;;5032174;28;20037;-82
2022/11/27 06:45:09;;;;;;;40.03;17.63;;;-1.90;99.90;;;;;;5095297;27;20117;-84
2022/11/27 06:47:34;;;;;;;44.17;18.85;;;-2.10;99.90;;;;;;5082109;28;20051;-84
2022/11/27 06:50:00;;;;;;;46.63;21.05;;;-2.00;99.90;;;;;;5072789;28;20028;-83
2022/11/27 06:52:26;;;;;;;47.88;20.80;;;-1.90;99.90;;;;;;5078080;28;20425;-84
2022/11/27 06:54:51;;;;;;;47.58;22.02;;;-1.90;99.90;;;;;;5082583;28;20047;-86
2022/11/27 06:57:17;;;;;;;45.22;20.77;;;-1.80;99.90;;;;;;5077724;28;20374;-78
2022/11/27 06:59:42;;;;;;;52.45;24.92;;;-1.70;99.90;;;;;;5083399;28;20036;-88
2022/11/27 07:02:13;;;;;;;54.28;25.67;;;-1.60;99.90;;;;;;5082061;28;20037;-87
2022/11/27 07:04:39;;;;;;;58.08;27.25;;;-1.60;99.90;;;;;;5068841;28;20403;-79
2022/11/27 07:07:04;;;;;;;57.80;25.48;;;-1.60;99.90;;;;;;5074625;28;20035;-83
2022/11/27 07:09:30;;;;;;;54.53;24.42;;;-1.60;99.90;;;;;;5070294;28;20031;-83
2022/11/27 07:11:56;;;;;;;56.47;24.05;;;-1.70;99.90;;;;;;5081840;28;20515;-81
2022/11/27 07:14:21;;;;;;;62.58;25.08;;;-1.60;99.90;;;;;;5075670;28;20047;-84
2022/11/27 07:16:47;;;;;;;48.65;24.33;;;-1.60;99.90;;;;;;5080272;28;20058;-86
2022/11/27 07:19:13;;;;;;;50.75;24.15;;;-1.60;99.90;;;;;;5074673;28;20029;-82
2022/11/27 07:21:39;;;;;;;44.15;21.02;;;-1.60;99.90;;;;;;5076375;28;21313;-88
2022/11/27 07:24:05;;;;;;;50.85;23.05;;;-1.70;99.90;;;;;;5084021;28;20042;-83
2022/11/27 07:26:31;;;;;;;64.15;26.63;;;-1.70;99.90;;;;;;5071080;28;20040;-82
2022/11/27 07:28:57;;;;;;;54.65;24.73;;;-1.60;99.90;;;;;;5083460;28;20028;-81
2022/11/27 07:31:26;;;;;;;50.42;25.25;;;-1.60;99.90;;;;;;5074649;28;20027;-82
2022/11/27 07:33:52;;;;;;;61.55;26.83;;;-1.50;99.90;;;;;;5087845;28;20459;-87
2022/11/27 07:36:29;;;;;;;52.13;23.85;;;-1.40;99.90;;;;;;5071212;28;20060;-76
2022/11/27 07:38:55;;;;;;;57.08;25.38;;;-1.30;99.90;;;;;;5075409;28;20032;-81
2022/11/27 07:41:21;;;;;;;52.03;26.40;;;-1.10;99.90;;;;;;5066590;28;20029;-84
2022/11/27 07:43:47;;;;;;;56.72;25.38;;;-1.00;99.90;;;;;;5085830;27;20052;-86
2022/11/27 07:46:15;;;;;;;54.38;24.42;;;-1.00;99.90;;;;;;5067153;28;20024;-84
2022/11/27 07:48:41;;;;;;;59.47;25.92;;;-1.00;99.90;;;;;;5072702;28;20072;-80
2022/11/27 07:51:09;;;;;;;52.35;23.73;;;-0.90;99.90;;;;;;5059013;28;20737;-76
2022/11/27 07:53:36;;;;;;;57.78;25.05;;;-0.90;99.90;;;;;;5065219;28;20041;-85
2022/11/27 07:56:03;;;;;;;57.42;27.08;;;-0.80;99.90;;;;;;5070046;28;20028;-80
2022/11/27 07:58:28;;;;;;;58.13;25.83;;;-0.70;99.90;;;;;;5072461;28;20021;-83
2022/11/27 08:00:55;;;;;;;55.03;25.35;;;-0.70;99.90;;;;;;5061400;28;20037;-80
2022/11/27 08:03:21;;;;;;;57.03;27.13;;;-0.60;99.90;;;;;;5057767;28;20094;-84
2022/11/27 08:05:46;;;;;;;53.85;26.38;;;-0.60;99.90;;;;;;5052595;28;20021;-89
2022/11/27 08:08:12;;;;;;;62.47;28.77;;;-0.50;99.90;;;;;;5062149;28;20025;-81
2022/11/27 08:10:38;;;;;;;50.80;26.95;;;-0.50;99.90;;;;;;5065749;28;20601;-78
2022/11/27 08:13:04;;;;;;;57.17;29.63;;;-0.50;99.90;;;;;;5062516;28;20032;-84
2022/11/27 08:15:30;;;;;;;60.10;29.92;;;-0.40;99.90;;;;;;5056251;28;20038;-78
2022/11/27 08:17:56;;;;;;;60.53;29.60;;;-0.40;99.90;;;;;;5063717;28;20054;-79
2022/11/27 08:20:22;;;;;;;56.08;28.67;;;-0.40;99.90;;;;;;5060541;28;20124;-80
2022/11/27 08:22:48;;;;;;;62.30;30.88;;;-0.40;99.90;;;;;;5064380;28;20040;-72
2022/11/27 08:25:14;;;;;;;81.30;35.10;;;-0.40;99.90;;;;;;5072948;28;20379;-79
2022/11/27 08:27:39;;;;;;;70.25;34.53;;;-0.40;99.90;;;;;;5063023;28;20032;-83
2022/11/27 08:30:06;;;;;;;67.35;32.75;;;-0.40;99.90;;;;;;5067332;28;20017;-76
2022/11/27 08:32:32;;;;;;;65.57;31.08;;;-0.30;99.90;;;;;;5061274;28;20028;-84
2022/11/27 08:34:57;;;;;;;65.13;33.20;;;-0.30;99.90;;;;;;5069339;28;20054;-83
2022/11/27 08:37:23;;;;;;;61.90;28.40;;;-0.20;99.90;;;;;;5063347;28;20437;-80
2022/11/27 08:39:48;;;;;;;51.80;25.85;;;0.00;99.90;;;;;;5070524;28;20029;-76
2022/11/27 08:42:28;;;;;;;55.33;29.30;;;0.00;99.90;;;;;;5063473;28;20088;-79
2022/11/27 08:44:54;;;;;;;58.92;28.58;;;0.10;99.90;;;;;;5032339;28;21448;-83
2022/11/27 08:47:19;;;;;;;53.25;28.05;;;0.20;99.90;;;;;;5062535;28;20034;-80
2022/11/27 08:49:45;;;;;;;44.55;24.15;;;0.30;99.90;;;;;;5072551;28;20479;-81
2022/11/27 08:52:11;;;;;;;34.30;21.00;;;0.60;99.90;;;;;;5039089;28;20119;-78
2022/11/27 08:54:36;;;;;;;36.10;21.60;;;0.70;99.90;;;;;;5062471;28;20028;-81
2022/11/27 08:57:02;;;;;;;34.80;20.20;;;0.80;99.90;;;;;;5051271;28;20036;-76
2022/11/27 08:59:28;;;;;;;33.38;20.20;;;0.90;99.90;;;;;;5052651;28;20411;-81
2022/11/27 09:01:54;;;;;;;44.03;23.55;;;1.00;99.90;;;;;;5062188;28;20028;-73
2022/11/27 09:04:19;;;;;;;40.92;22.75;;;1.20;99.90;;;;;;5065187;28;20029;-73
2022/11/27 09:06:47;;;;;;;42.58;23.48;;;1.50;99.90;;;;;;5068793;28;20032;-74
2022/11/27 09:09:13;;;;;;;35.17;20.20;;;1.70;99.90;;;;;;5056795;28;20387;-74
2022/11/27 09:11:39;;;;;;;27.58;18.80;;;1.80;99.90;;;;;;5070938;28;20020;-74
2022/11/27 09:14:04;;;;;;;29.48;18.30;;;2.00;99.90;;;;;;5071834;28;20032;-75
2022/11/27 09:16:31;;;;;;;27.98;17.70;;;2.10;99.90;;;;;;5057472;28;20040;-75
2022/11/27 09:18:57;;;;;;;23.55;16.38;;;2.20;99.90;;;;;;5065260;28;20020;-75
2022/11/27 09:21:27;;;;;;;21.77;14.35;;;2.30;99.90;;;;;;5069247;28;20386;-74
2022/11/27 09:23:53;;;;;;;;;;;2.30;99.90;;;;;;5076898;28;20467;-75
2022/11/27 09:26:19;;;;;;;20.77;13.32;;;2.40;99.90;;;;;;5067547;28;20255;-73
2022/11/27 09:28:45;;;;;;;15.82;11.80;;;2.40;99.90;;;;;;5066140;28;20089;-74
2022/11/27 09:31:13;;;;;;;17.65;11.27;;;2.40;99.90;;;;;;5056279;28;20103;-74
2022/11/27 09:33:40;;;;;;;19.60;13.38;;;2.40;99.90;;;;;;5050472;28;20043;-74
2022/11/27 09:36:15;;;;;;;16.67;11.93;;;2.30;99.90;;;;;;5051086;28;20029;-74
2022/11/27 09:38:41;;;;;;;19.25;12.90;;;2.40;99.90;;;;;;5051082;28;20037;-74
2022/11/27 09:41:26;;;;;;;17.35;11.55;;;2.30;99.90;;;;;;5060087;28;20024;-74
2022/11/27 09:43:55;;;;;;;15.98;11.95;;;2.40;99.90;;;;;;5069189;28;20072;-73
2022/11/27 09:46:41;;;;;;;17.92;12.75;;;2.50;99.90;;;;;;5060169;28;20086;-73
2022/11/27 09:49:11;;;;;;;17.90;13.13;;;2.50;99.90;;;;;;5053922;28;20083;-73
2022/11/27 09:51:42;;;;;;;;;;;2.50;99.90;;;;;;5050605;28;20081;-74
2022/11/27 09:54:23;;;;;;;19.55;12.73;;;2.50;99.90;;;;;;5067672;28;19963;-74
2022/11/27 09:56:52;;;;;;;21.05;12.52;;;2.50;99.90;;;;;;5050690;28;20067;-73
2022/11/27 09:59:20;;;;;;;19.92;12.52;;;2.60;99.90;;;;;;5055957;28;20064;-73
2022/11/27 10:01:46;;;;;;;20.92;13.07;;;2.50;99.90;;;;;;5068365;28;20033;-74
2022/11/27 10:04:14;;;;;;;17.17;12.02;;;2.50;99.90;;;;;;5061790;28;20464;-74
2022/11/27 10:07:01;;;;;;;17.33;12.20;;;2.60;99.90;;;;;;5054593;28;20024;-74
2022/11/27 10:09:56;;;;;;;16.88;11.68;;;2.60;99.90;;;;;;5065180;28;20036;-74
2022/11/27 10:12:51;;;;;;;17.70;11.43;;;2.80;99.90;;;;;;4982161;28;20047;-73
2022/11/27 10:15:50;;;;;;;15.63;10.82;;;2.90;99.90;;;;;;5054643;28;20074;-74
2022/11/27 10:18:36;;;;;;;17.90;11.70;;;2.90;99.90;;;;;;5060067;28;20128;-74
2022/11/27 10:21:43;;;;;;;20.42;13.18;;;2.90;99.90;;;;;;5063627;28;20048;-76
2022/11/27 10:24:35;;;;;;;20.40;13.30;;;2.90;99.90;;;;;;5059351;28;20036;-74
2022/11/27 10:27:02;;;;;;;20.70;12.45;;;2.90;99.90;;;;;;5056214;28;20060;-75
2022/11/27 10:29:46;;;;;;;18.20;12.20;;;2.90;99.90;;;;;;5057923;28;20525;-76
2022/11/27 10:32:16;;;;;;;18.40;13.15;;;3.00;99.90;;;;;;5060555;28;20390;-76
2022/11/27 10:34:44;;;;;;;17.63;12.13;;;2.90;99.90;;;;;;5056772;28;20115;-76
2022/11/27 10:37:16;;;;;;;17.40;12.00;;;3.00;99.90;;;;;;5065039;28;20410;-76
2022/11/27 10:40:06;;;;;;;16.88;11.13;;;3.00;99.90;;;;;;5059440;28;20037;-74
2022/11/27 10:42:41;;;;;;;17.40;11.63;;;3.10;99.90;;;;;;5056499;28;20664;-75
2022/11/27 10:45:20;;;;;;;18.85;12.77;;;3.20;99.90;;;;;;5062603;28;20503;-74
2022/11/27 10:47:47;;;;;;;18.58;12.48;;;3.30;99.90;;;;;;5063299;28;20029;-75
2022/11/27 10:50:17;;;;;;;20.00;12.95;;;3.40;99.90;;;;;;5063954;28;20123;-76
2022/11/27 10:52:49;;;;;;;16.88;11.52;;;;;;;;;;5062858;28;20093;-76
2022/11/27 10:55:18;;;;;;;15.65;10.48;;;;;;;;;;5063920;28;20098;-72
2022/11/27 10:57:56;;;;;;;14.55;8.30;;;;;;;;;;5069503;28;20154;-74
2022/11/27 11:00:23;;;;;;;17.98;9.52;;;;;;;;;;5053725;28;20553;-76
2022/11/27 11:02:59;;;;;;;15.85;9.57;;;;;;;;;;5051717;28;20048;-86
2022/11/27 11:05:25;;;;;;;14.27;9.63;;;;;;;;;;5049731;28;20426;-86
2022/11/27 11:07:55;;;;;;;15.30;10.65;;;;;;;;;;5056283;28;20366;-80
2022/11/27 11:10:26;;;;;;;15.90;9.50;;;;;;;;;;5060156;28;20493;-76
2022/11/27 11:13:06;;;;;;;18.33;10.10;;;;;;;;;;5069429;28;20036;-74
2022/11/27 11:15:32;;;;;;;15.23;9.77;;;5.20;99.90;;;;;;5051086;28;20108;-80
2022/11/27 11:17:57;;;;;;;13.65;9.70;;;5.10;99.90;;;;;;5063333;28;20052;-79
2022/11/27 11:20:24;;;;;;;13.05;9.07;;;5.00;99.90;;;;;;5062269;28;20102;-82
2022/11/27 11:22:50;;;;;;;12.35;8.50;;;5.00;99.90;;;;;;5065291;28;20035;-82
2022/11/27 11:25:17;;;;;;;12.20;8.30;;;5.10;99.90;;;;;;5065305;28;20031;-75
2022/11/27 11:27:44;;;;;;;15.20;8.25;;;5.30;99.90;;;;;;5060146;28;20024;-78
2022/11/27 11:30:20;;;;;;;12.55;9.23;;;5.30;99.90;;;;;;5070998;28;20218;-77
2022/11/27 11:32:48;;;;;;;13.02;8.52;;;5.40;99.90;;;;;;5067051;28;20025;-77
2022/11/27 11:35:29;;;;;;;13.18;8.80;;;5.50;99.90;;;;;;5061939;28;20112;-76
2022/11/27 11:37:56;;;;;;;11.88;7.25;;;5.50;99.90;;;;;;5061389;28;20024;-76
2022/11/27 11:40:26;;;;;;;14.05;7.95;;;5.50;99.90;;;;;;5059388;28;20481;-78
2022/11/27 11:42:52;;;;;;;12.15;8.13;;;5.50;99.90;;;;;;5061919;28;20036;-78
2022/11/27 11:45:21;;;;;;;9.60;7.28;;;5.40;99.90;;;;;;5064443;28;20052;-76
2022/11/27 11:47:52;;;;;;;11.52;8.23;;;5.30;99.90;;;;;;5066647;28;20025;-77
2022/11/27 11:50:28;;;;;;;15.45;7.68;;;5.20;99.90;;;;;;5063545;28;20041;-76
2022/11/27 11:53:03;;;;;;;12.85;7.35;;;5.20;99.90;;;;;;5065986;28;20025;-74
2022/11/27 11:55:41;;;;;;;12.38;6.50;;;5.30;99.90;;;;;;5064127;28;20041;-79
2022/11/27 11:58:34;;;;;;;12.27;7.03;;;5.40;99.90;;;;;;5047280;28;20028;-76
2022/11/27 12:01:20;;;;;;;10.20;6.43;;;5.70;99.90;;;;;;5063220;28;20515;-75
2022/11/27 12:04:13;;;;;;;7.68;5.20;;;6.00;99.90;;;;;;5067523;28;20106;-80
2022/11/27 12:06:50;;;;;;;7.40;4.72;;;6.20;99.90;;;;;;5062022;28;20138;-74
2022/11/27 12:09:37;;;;;;;8.52;4.72;;;6.30;99.90;;;;;;5064116;28;20357;-76
2022/11/27 12:12:13;;;;;;;6.20;4.05;;;;;;;;;;5044561;28;20451;-73
2022/11/27 12:14:46;;;;;;;5.60;4.10;;;6.70;99.90;;;;;;5059993;28;20330;-71
2022/11/27 12:17:33;;;;;;;5.07;3.40;;;6.70;99.90;;;;;;5060217;28;20387;-73
2022/11/27 12:20:20;;;;;;;6.20;3.47;;;6.80;99.90;;;;;;5061541;28;20029;-78
2022/11/27 12:23:13;;;;;;;5.45;3.00;;;6.90;99.90;;;;;;5063550;28;20055;-77
2022/11/27 12:25:52;;;;;;;4.18;2.92;;;6.90;99.90;;;;;;5061091;28;20035;-78
2022/11/27 12:28:50;;;;;;;10.18;4.82;;;7.00;99.90;;;;;;5061231;28;20063;-76
2022/11/27 12:31:32;;;;;;;7.13;3.30;;;7.20;99.90;;;;;;5059214;28;20025;-74
2022/11/27 12:34:10;;;;;;;5.80;3.40;;;7.30;99.90;;;;;;5063400;28;20021;-76
2022/11/27 12:36:53;;;;;;;6.90;3.83;;;7.30;99.90;;;;;;5058659;28;20073;-74
2022/11/27 12:39:30;;;;;;;10.75;5.30;;;7.30;99.90;;;;;;5060625;28;20025;-73
2022/11/27 12:42:19;;;;;;;7.38;4.85;;;7.30;99.90;;;;;;5062370;28;20028;-75
2022/11/27 12:44:53;;;;;;;8.00;4.82;;;7.50;99.90;;;;;;5063354;28;20048;-77
2022/11/27 12:47:37;;;;;;;8.57;4.32;;;7.60;99.90;;;;;;5061228;28;20496;-74
2022/11/27 12:50:39;;;;;;;9.38;4.60;;;7.60;99.90;;;;;;5058071;28;20017;-76
2022/11/27 12:53:13;;;;;;;6.65;4.40;;;7.70;99.90;;;;;;5063785;28;20400;-74
2022/11/27 12:55:43;;;;;;;7.82;4.72;;;7.70;99.90;;;;;;5061946;28;20036;-74
2022/11/27 12:58:18;;;;;;;4.78;3.70;;;7.60;99.90;;;;;;5062855;28;20028;-76
2022/11/27 13:00:44;;;;;;;10.98;5.07;;;7.60;99.90;;;;;;5062588;28;20082;-76
2022/11/27 13:03:48;;;;;;;8.52;4.07;;;7.50;99.90;;;;;;5060150;28;20391;-75
2022/11/27 13:06:48;;;;;;;9.32;4.30;;;7.60;99.90;;;;;;5059534;28;20155;-75
2022/11/27 13:09:24;;;;;;;7.25;4.07;;;7.60;99.90;;;;;;5060661;28;20043;-75
2022/11/27 13:11:50;;;;;;;6.22;3.85;;;7.60;99.90;;;;;;5065812;28;20078;-81
2022/11/27 13:14:22;;;;;;;8.23;3.72;;;7.60;99.90;;;;;;5067291;28;20029;-73
2022/11/27 13:16:54;;;;;;;4.82;3.47;;;7.60;99.90;;;;;;5059153;28;20074;-76
2022/11/27 13:19:42;;;;;;;7.07;4.03;;;7.70;99.90;;;;;;5063187;28;20025;-74
2022/11/27 13:22:26;;;;;;;7.80;4.20;;;7.80;99.90;;;;;;5060394;28;20031;-73
2022/11/27 13:24:55;;;;;;;10.32;4.28;;;7.80;99.90;;;;;;5068044;28;20481;-76
2022/11/27 13:27:25;;;;;;;6.28;4.07;;;7.90;99.90;;;;;;5057303;28;20119;-75
2022/11/27 13:30:01;;;;;;;6.05;3.72;;;7.90;99.90;;;;;;5038810;28;20123;-77
2022/11/27 13:32:31;;;;;;;8.20;4.80;;;7.90;99.90;;;;;;5058022;28;20450;-74
2022/11/27 13:35:01;;;;;;;12.18;5.93;;;7.90;99.90;;;;;;5059527;28;20459;-77
2022/11/27 13:37:37;;;;;;;9.65;4.70;;;8.00;99.90;;;;;;5056942;28;20059;-74
2022/11/27 13:40:42;;;;;;;5.57;3.63;;;8.00;99.90;;;;;;5051197;28;20046;-77
2022/11/27 13:43:49;;;;;;;5.40;3.10;;;8.10;99.90;;;;;;4990345;28;20105;-73
2022/11/27 13:46:30;;;;;;;6.38;3.85;;;8.10;99.90;;;;;;5070726;28;20048;-72
2022/11/27 13:49:01;;;;;;;9.13;4.22;;;8.10;99.90;;;;;;5081253;28;20024;-73